• °C
  • Pobieranie danych...
wx


SEKCJA WYDRUKÓW, pokaż »

TAF EPBC 240200Z NIL=

TAF EPCE 240800Z 2409/2418 23006KT 3000 BR BKN003 TEMPO 2409/2418
1500 -DZ BR BKN002 PROB30 2410/2417 0500 FG=

TAF EPCE 241100Z 2412/2421 23006KT 3000 BR BKN003 TEMPO 2412/2421
1500 -DZ BR BKN002 PROB30 2412/2417 0500 FG BECMG 2415/2417
27008G20KT =

TAF EPDA 240800Z 2409/2418 24008KT 1500 BR DZ BKN004 TEMPO 2409/2414
0600 FG DZ OVC002 BECMG 2413/2415 5000 SCT006 BKN012 TEMPO
2414/2418 3000 DZ BR BKN005=

TAF EPDA 241100Z 2412/2421 24008KT 1500 BR DZ BKN004 TEMPO 2412/2414
0600 FG DZ OVC002 BECMG 2413/2415 5000 SCT006 BKN012 TEMPO
2414/2421 3000 DZ BR BKN005=

TAF EPDE 240800Z 2409/2418 16006KT 9999 SCT033
BECMG 2414/2416 7000 BKN020=

TAF EPDE 241100Z 2412/2421 19008KT CAVOK
BECMG 2416/2418 7000 BKN024
TEMPO 2418/2421 4000 -SN -SNRA BR BKN004 OVC010=

TAF EPDE 312300Z NIL=

TAF EPIR 240800Z 2409/2418 VRB02KT 0500 FG BKN003 OVC008 BECMG
2411/2413 3000 BR BKN008 OVC013 PROB30 2416/2418 1000 BR OVC004=

TAF EPIR 241100Z 2412/2421 21006KT 2000 BR OVC011 BECMG 2412/2414
5000 BR OVC013 PROB30 TEMPO 2417/2421 1200 -DZ BR OVC003=

TAF EPIR 312300Z NIL=

TAF AMD EPKS 240937Z 2409/2418 24004KT 3000 BR SCT005 OVC010
TEMPO 2410/2418 1500 RA BR BKN003
PROB30 TEMPO 2411/2418 1000 DZRA BR BKN002=

TAF EPKS 241100Z 2412/2421 24004KT 4000 BR BKN005 OVC010
TEMPO 2412/2421 2000 -RA BR BKN003
PROB30 TEMPO 2412/2418 1000 DZRA BR OVC002=

TAF EPKS 312300Z NIL=

TAF EPLK 240800Z 2409/2418 18006KT 5000 BR BKN020
BECMG 2414/2416 3000 BR BKN010
PROB30 TEMPO 2416/2418 1500 -FZDZ BKN003=

TAF EPLK 241100Z 2412/2421 21006KT 5000 BR BKN020
BECMG 2415/2417 BKN012
PROB30 TEMPO 2417/2421 2000 -RASN BR BKN003=

TAF EPLY 240801Z 2409/2418 21008KT 6000 BKN020 TEMPO 2414/2418
BKN010=

TAF EPLY 241100Z 2412/2421 22008KT 6000 BKN020 BECMG 2415/2417 BKN012
TEMPO 2418/2421 3000 BR -RASN BKN007 OVC010=

TAF EPLY 312300Z NIL=

TAF EPMB 240800Z 2409/2418 19010KT 5000 BR SCT005 OVC015 TEMPO
2409/2418 2000 DZ BR BKN004=

TAF EPMB 241100Z 2412/2421 19010KT 5000 BR BKN005 OVC015 TEMPO
2412/2421 2000 DZ BR BKN004=

TAF COR EPMI 240811Z 2409/2418 25004KT 0800 -DZ FG OVC002
TEMPO 2409/2415 2500 -DZ BR OVC004=

TAF EPMI 241100Z 2412/2421 24004KT 1200 -DZ BR OVC003 TEMPO 2412/2418
3500 -DZ BR OVC005=

TAF EPMI 312300Z NIL=

TAF COR EPMM 240800Z 2409/2418 19008KT CAVOK BECMG 2410/2412 BKN035
BECMG 2413/2415 BKN015 OVC030 TEMPO 2416/2418 3000 -SN BR BKN003
OVC010 =

TAF COR EPMM 240800Z 2409/2418 19008KT CAVOK BECMG 2410/2412 BKN035
BECMG 2413/2415 BKN015 OVC030 TEMPO 2416/2418 3000 -SN BR BKN003
OVC010=

TAF EPMM 241100Z 2412/2421 19006KT CAVOK
BECMG 2413/2415 BKN015 OVC030
TEMPO 2418/2421 3000 -SN BR BKN003 OVC010=

TAF EPNA 240200Z NIL=

TAF EPNA 312300Z NIL=

TAF EPOK 240800Z 2409/2418 25014KT 7000 BKN008 OVC013 TEMPO 2409/2418
5000 -DZ BR BKN005=

TAF EPOK 241100Z 2412/2421 25014KT 8000 BKN008 BKN013 OVC040 PROB30
TEMPO 2412/2418 5000 -DZ BR BKN005 TEMPO 2418/2421 27017G27KT RA
DZRA BKN020=

TAF EPPR 240800Z 2409/2418 25014KT 8000 BKN008 OVC015 TEMPO 2409/2418
5000 -DZ BR BKN005=

TAF EPPR 241100Z 2412/2421 22010KT 8000 BKN008 OVC015 TEMPO 2412/2421
5000 -DZ BR BKN004=

TAF EPPR 312300Z NIL=

TAF EPPW 240800Z 2409/2418 24006KT 0600 FG OVC002 TEMPO 2409/2411
0200 FG DZ BECMG 2411/2413 1000 BR OVC004 TEMPO 2411/2418 0700
FG DZ OVC002=

TAF EPPW 241100Z 2412/2421 24006KT 1000 BR OVC003 TEMPO 2412/2415
0700 FG DZ OVC002 PROB30 TEMPO 2416/2421 0400 FG DZ OVC001=

TAF EPRA 312300Z NIL=

TAF EPSN 240800Z 2409/2418 26007KT 0800 FG OVC002 BECMG 2409/2411
26008KT 1500 DZ BR BKN004 OVC010 PROB30 2412/2418 3000 BR
BKN006=

TAF EPSN 241100Z 2412/2421 26008KT 3000 BR BKN006 OVC010 TEMPO
2412/2421 1500 DZ BR BKN003 BECMG 2413/2416 5000 BR=

TAF EPTM 240800Z 2409/2418 19006KT CAVOK
BECMG 2413/2415 BKN020
PROB30 TEMPO 2415/2418 4000 -RASN BR SCT008 BKN015=

TAF EPTM 241100Z 2412/2421 21006KT 8000 BKN020
TEMPO 2417/2421 4000 -SNRA BR SCT008 BKN015=

TAF EPTM 312300Z NIL=



Serwisy IMGW-PIB